Time;durP1;ratioP1;P1;durP2;ratioP2;P2;SDS_P1;SDS_P2;PMS_P1;PMS_P2;Temp;Humidity;BMP_temperature;BMP_pressure;BME280_temperature;BME280_humidity;BME280_pressure;Samples;Min_cycle;Max_cycle;Signal;HPM_P1;HPM_P2
2021/01/29 00:00:38;;;;;;;16.60;7.05;;;;;;;-2.16;82.79;97708.17;124843;1106;23055;-55
2021/01/29 00:03:09;;;;;;;22.73;8.03;;;;;;;-2.16;82.69;97710.84;129229;1105;22894;-57
2021/01/29 00:05:39;;;;;;;29.10;10.97;;;;;;;-2.17;82.83;97705.75;129044;1105;23870;-56
2021/01/29 00:08:07;;;;;;;15.90;6.90;;;;;;;-2.17;82.98;97701.23;129265;1105;22837;-56
2021/01/29 00:10:35;;;;;;;12.47;5.23;;;;;;;-2.17;83.07;97695.08;129122;1106;22889;-56
2021/01/29 00:13:03;;;;;;;18.03;5.70;;;;;;;-2.17;82.90;97695.08;129178;1105;22912;-57
2021/01/29 00:15:31;;;;;;;19.47;6.83;;;;;;;-2.18;82.87;97688.93;129095;1105;23019;-56
2021/01/29 00:17:58;;;;;;;28.93;8.50;;;;;;;-2.18;82.93;97690.78;129192;1105;22850;-57
2021/01/29 00:20:27;;;;;;;18.43;6.13;;;;;;;-2.19;82.77;97689.96;129076;1105;23582;-56
2021/01/29 00:22:56;;;;;;;29.30;9.73;;;;;;;-2.21;82.91;97685.88;128834;1105;22934;-56
2021/01/29 00:25:28;;;;;;;24.60;7.97;;;;;;;-2.23;82.52;97686.10;129140;1105;22851;-56
2021/01/29 00:27:56;;;;;;;19.30;7.20;;;;;;;-2.27;82.65;97687.57;129266;1105;22988;-56
2021/01/29 00:30:23;;;;;;;20.77;8.13;;;;;;;-2.30;82.79;97688.01;129273;1105;23549;-56
2021/01/29 00:32:51;;;;;;;27.07;8.60;;;;;;;-2.33;83.02;97682.33;129125;1105;23576;-57
2021/01/29 00:35:21;;;;;;;21.93;8.10;;;;;;;-2.36;82.63;97677.42;129285;1105;22974;-56
2021/01/29 00:37:48;;;;;;;26.23;9.00;;;;;;;-2.39;82.79;97673.34;129106;1105;23422;-56
2021/01/29 00:40:16;;;;;;;13.77;5.70;;;;;;;-2.40;82.68;97676.22;129233;1105;22878;-56
2021/01/29 00:42:45;;;;;;;28.07;10.40;;;;;;;-2.43;82.67;97666.81;129058;1106;22823;-57
2021/01/29 00:45:13;;;;;;;20.67;7.37;;;;;;;-2.41;82.90;97663.92;129203;1105;22859;-57
2021/01/29 00:47:40;;;;;;;22.03;8.13;;;;;;;-2.43;82.69;97663.33;129113;1104;22841;-56
2021/01/29 00:50:09;;;;;;;28.13;8.60;;;;;;;-2.43;82.82;97658.81;129198;1105;22976;-56
2021/01/29 00:52:36;;;;;;;28.27;9.50;;;;;;;-2.46;82.43;97655.80;129064;1104;22857;-57
2021/01/29 00:55:04;;;;;;;28.57;10.10;;;;;;;-2.47;82.36;97656.83;129173;1105;22851;-56
2021/01/29 00:57:36;;;;;;;24.33;7.30;;;;;;;-2.48;82.59;97660.53;128843;1104;22831;-57
2021/01/29 01:00:27;;;;;;;16.13;5.03;;;;;;;-2.50;82.58;97655.41;128951;1106;22907;-56
2021/01/29 01:02:57;;;;;;;29.07;8.13;;;;;;;-2.51;82.65;97656.45;128844;1105;22988;-56
2021/01/29 01:05:26;;;;;;;33.43;9.27;;;;;;;-2.52;82.17;97652.14;129039;1105;22984;-57
2021/01/29 01:07:53;;;;;;;23.97;7.17;;;;;;;-2.56;82.20;97643.77;128309;1105;23844;-56
2021/01/29 01:10:24;;;;;;;28.87;9.33;;;;;;;-2.59;82.14;97652.20;129202;1105;22836;-56
2021/01/29 01:13:12;;;;;;;;;;;;;;;-2.61;82.44;97654.30;129101;1106;22921;-56
2021/01/29 01:15:57;;;;;;;8.57;3.43;;;;;;;-2.64;82.48;97643.25;129072;1105;21898;-56
2021/01/29 01:18:25;;;;;;;20.03;7.07;;;;;;;-2.64;82.43;97649.39;129063;1105;24479;-56
2021/01/29 01:21:09;;;;;;;12.00;5.23;;;;;;;-2.65;82.24;97646.95;128922;1105;23727;-56
2021/01/29 01:23:37;;;;;;;17.63;6.70;;;;;;;-2.66;82.67;97647.98;128361;1105;22857;-56
2021/01/29 01:26:04;;;;;;;14.53;5.73;;;;;;;-2.63;82.32;97656.36;129037;1105;23462;-56
2021/01/29 01:31:07;;;;;;;13.20;5.20;;;;;;;-2.63;82.29;97651.03;124277;1110;23129;-55
2021/01/29 01:33:38;;;;;;;9.30;4.30;;;;;;;-2.64;82.18;97643.25;128169;1111;22846;-56
2021/01/29 01:36:14;;;;;;;11.67;4.47;;;;;;;-2.65;82.21;97646.95;128287;1110;22839;-57
2021/01/29 01:38:45;;;;;;;9.63;2.90;;;;;;;-2.71;81.63;97645.96;128149;1111;22849;-57
2021/01/29 01:41:13;;;;;;;13.17;4.47;;;;;;;-2.74;81.38;97643.73;128241;1111;22955;-57
2021/01/29 01:43:48;;;;;;;6.03;3.43;;;;;;;-2.76;80.67;97639.68;128139;1110;22877;-57
2021/01/29 01:46:36;;;;;;;15.08;4.85;;;;;;;-2.81;80.42;97636.84;128254;1111;22905;-57
2021/01/29 01:49:23;;;;;;;10.93;3.73;;;;;;;-2.86;80.11;97640.16;128152;1110;22899;-57
2021/01/29 01:52:22;;;;;;;11.37;3.77;;;;;;;-2.88;80.26;97640.38;128328;1111;22967;-57
2021/01/29 01:55:15;;;;;;;10.08;2.62;;;;;;;-2.90;80.08;97638.98;128203;1112;23141;-57
2021/01/29 01:57:47;;;;;;;6.57;2.53;;;;;;;-2.93;80.26;97629.58;128287;1111;22893;-57
2021/01/29 02:00:32;;;;;;;7.17;3.63;;;;;;;-2.94;79.85;97633.27;128202;1110;23058;-57
2021/01/29 02:03:23;;;;;;;8.28;3.60;;;;;;;-2.95;79.86;97638.81;128235;1111;23747;-57
2021/01/29 02:06:06;;;;;;;5.23;2.97;;;;;;;-2.96;79.57;97631.85;128155;1111;23510;-57
2021/01/29 02:08:57;;;;;;;4.57;2.40;;;;;;;-3.01;79.36;97629.02;128258;1111;23063;-57
2021/01/29 02:11:53;;;;;;;6.77;3.00;;;;;;;-3.08;78.56;97621.09;128298;1111;22955;-57
2021/01/29 02:14:46;;;;;;;5.37;2.63;;;;;;;-3.10;78.17;97623.16;128051;1112;22933;-57
2021/01/29 02:18:10;;;;;;;5.57;2.60;;;;;;;-3.13;77.43;97620.11;128256;1111;22981;-57
2021/01/29 02:21:10;;;;;;;5.03;2.53;;;;;;;-3.19;77.63;97618.33;128194;1111;22839;-57
2021/01/29 02:24:44;;;;;;;3.63;2.10;;;;;;;-3.25;77.31;97610.16;128273;1112;22991;-57
2021/01/29 02:27:46;;;;;;;8.27;2.93;;;;;;;-3.39;77.04;97607.81;128185;1111;23970;-57
2021/01/29 02:30:47;;;;;;;5.20;2.80;;;;;;;-3.33;77.11;97609.63;128124;1111;22864;-57
2021/01/29 02:33:34;;;;;;;5.03;2.53;;;;;;;-3.32;77.27;97613.92;128289;1111;23521;-57
2021/01/29 02:36:47;;;;;;;5.30;2.65;;;;;;;-3.33;76.51;97613.11;128142;1112;22906;-57
2021/01/29 02:39:44;;;;;;;6.70;3.33;;;;;;;-3.38;76.53;97604.95;127918;1115;22933;-57
2021/01/29 02:42:14;;;;;;;5.83;2.80;;;;;;;-3.41;76.94;97616.02;127775;1114;22916;-57
2021/01/29 02:45:16;;;;;;;8.03;3.43;;;;;;;-3.48;76.63;97609.94;127866;1114;23036;-57
2021/01/29 02:48:39;;;;;;;7.27;3.43;;;;;;;-3.50;76.98;97617.32;127970;1115;23557;-57
2021/01/29 02:51:42;;;;;;;7.07;3.03;;;;;;;-3.49;76.30;97613.63;127854;1115;22900;-57
2021/01/29 02:54:37;;;;;;;4.97;2.57;;;;;;;-3.54;76.02;97613.45;127940;1114;23489;-57
2021/01/29 02:57:38;;;;;;;6.30;3.00;;;;;;;-3.58;77.18;97612.24;127815;1114;22902;-57
2021/01/29 03:00:41;;;;;;;4.80;2.77;;;;;;;-3.57;77.03;97608.55;127856;1114;23575;-57
2021/01/29 03:03:22;;;;;;;13.57;4.57;;;;;;;-3.53;76.13;97611.61;127781;1114;23911;-57
2021/01/29 03:06:10;;;;;;;10.33;4.47;;;;;;;-3.55;76.09;97606.50;127942;1114;22849;-57
2021/01/29 03:08:43;;;;;;;6.60;3.30;;;;;;;-3.55;76.40;97601.17;127849;1116;25346;-57
2021/01/29 03:12:02;;;;;;;5.37;3.40;;;;;;;-3.53;76.62;97599.11;127878;1115;22968;-57
2021/01/29 03:14:52;;;;;;;5.05;2.45;;;;;;;-3.52;76.18;97586.63;128104;1110;23585;-57
2021/01/29 03:18:00;;;;;;;3.97;2.60;;;;;;;-3.50;75.90;97596.03;128164;1110;22960;-57
2021/01/29 03:21:02;;;;;;;5.10;2.27;;;;;;;-3.49;74.57;97581.69;128277;1111;22999;-57
2021/01/29 03:23:54;;;;;;;5.67;2.23;;;;;;;-3.51;75.31;97589.07;128188;1111;22873;-57
2021/01/29 03:26:49;;;;;;;5.17;3.07;;;;;;;-3.53;75.30;97585.80;128268;1111;22826;-57
2021/01/29 03:29:40;;;;;;;7.97;3.43;;;;;;;-3.54;74.68;97589.50;128078;1112;23848;-57
2021/01/29 03:32:51;;;;;;;9.75;4.12;;;;;;;-3.58;74.91;97575.80;127974;1112;23008;-57
2021/01/29 03:36:03;;;;;;;16.80;6.90;;;;;;;-3.58;74.71;97582.97;128066;1111;26540;-57
2021/01/29 03:39:14;;;;;;;13.22;7.08;;;;;;;-3.61;74.73;97580.76;128093;1111;22857;-57
2021/01/29 03:42:45;;;;;;;14.27;6.93;;;;;;;-3.65;75.05;97585.69;128276;1112;22860;-57
2021/01/29 03:46:02;;;;;;;9.07;4.70;;;;;;;-3.68;74.42;97579.97;128126;1112;22898;-64
2021/01/29 03:48:58;;;;;;;8.37;4.10;;;;;;;-3.73;73.91;97574.47;127992;1111;22884;-64
2021/01/29 03:52:20;;;;;;;6.80;2.95;;;;;;;-3.80;73.85;97573.72;128269;1111;23023;-65
2021/01/29 03:55:18;;;;;;;4.93;2.30;;;;;;;-3.87;73.78;97576.40;128164;1111;22916;-65
2021/01/29 03:58:22;;;;;;;6.40;2.58;;;;;;;-3.92;74.64;97581.56;128250;1111;22888;-64
2021/01/29 04:01:40;;;;;;;5.23;3.03;;;;;;;-3.95;73.85;97580.14;128256;1112;22836;-65
2021/01/29 04:05:28;;;;;;;7.17;3.93;;;;;;;-3.99;73.84;97583.43;127822;1114;22902;-61
2021/01/29 04:08:18;;;;;;;8.53;3.97;;;;;;;-4.05;73.68;97585.12;127558;1118;23465;-62
2021/01/29 04:11:05;;;;;;;10.00;3.97;;;;;;;-4.08;73.50;97590.85;127434;1118;23700;-62
2021/01/29 04:14:00;;;;;;;6.17;3.83;;;;;;;-4.11;73.52;97583.30;127522;1118;22945;-62
2021/01/29 04:16:37;;;;;;;7.33;4.00;;;;;;;-4.15;74.60;97578.61;127468;1118;23133;-64
2021/01/29 04:19:07;;;;;;;8.03;4.00;;;;;;;-4.18;73.40;97587.81;127586;1118;23066;-62
2021/01/29 04:22:07;;;;;;;8.73;4.30;;;;;;;-4.23;74.64;97577.02;127460;1117;23040;-63
2021/01/29 04:24:37;;;;;;;15.73;6.70;;;;;;;-4.31;74.91;97574.59;127463;1119;23041;-63
2021/01/29 04:27:18;;;;;;;25.90;10.53;;;;;;;-4.39;73.23;97582.81;127374;1119;23047;-63
2021/01/29 04:30:02;;;;;;;29.83;10.40;;;;;;;-4.48;72.83;97570.80;127313;1120;22960;-62
2021/01/29 04:32:35;;;;;;;28.03;11.07;;;;;;;-4.58;73.21;97581.03;127439;1119;23049;-62
2021/01/29 04:35:03;;;;;;;17.90;7.80;;;;;;;-4.63;73.82;97581.67;127336;1118;22884;-63
2021/01/29 04:37:32;;;;;;;17.10;7.03;;;;;;;-4.66;73.89;97571.46;127456;1118;22839;-63
2021/01/29 04:40:07;;;;;;;14.97;6.47;;;;;;;-4.67;74.47;97560.02;127509;1118;23133;-63
2021/01/29 04:42:48;;;;;;;14.73;6.77;;;;;;;-4.68;74.58;97566.36;127751;1115;23023;-63
2021/01/29 04:46:05;;;;;;;10.63;5.30;;;;;;;-4.68;74.33;97566.36;127938;1114;22916;-63
2021/01/29 04:48:45;;;;;;;12.13;6.17;;;;;;;-4.65;75.14;97565.94;127566;1118;22900;-63
2021/01/29 04:51:27;;;;;;;12.70;6.80;;;;;;;-4.65;74.58;97567.78;127448;1118;22908;-63
2021/01/29 04:54:34;;;;;;;9.83;5.13;;;;;;;-4.65;76.08;97567.78;127553;1118;22922;-62
2021/01/29 04:57:07;;;;;;;14.93;6.33;;;;;;;-4.63;76.21;97579.02;127474;1118;22987;-63
2021/01/29 04:59:48;;;;;;;17.83;6.87;;;;;;;-4.62;76.33;97578.00;127524;1117;22877;-63
2021/01/29 05:03:23;;;;;;;17.97;7.37;;;;;;;-4.57;75.14;97556.09;127619;1115;23422;-63
2021/01/29 05:06:51;;;;;;;13.83;6.50;;;;;;;-4.59;75.78;97564.27;127949;1115;23089;-62
2021/01/29 05:10:19;;;;;;;17.73;7.40;;;;;;;-4.56;76.06;97549.75;127957;1115;22936;-63
2021/01/29 05:13:01;;;;;;;22.90;11.43;;;;;;;-4.57;75.14;97550.78;127781;1115;22880;-62
2021/01/29 05:16:06;;;;;;;26.17;12.60;;;;;;;-4.58;76.86;97546.48;127934;1115;22921;-63
2021/01/29 05:19:11;;;;;;;24.50;12.10;;;;;;;-4.56;75.73;97571.02;127827;1115;22873;-63
2021/01/29 05:21:47;;;;;;;24.60;11.27;;;;;;;-4.52;76.61;97570.39;127938;1115;23168;-62
2021/01/29 05:24:36;;;;;;;25.05;11.00;;;;;;;-4.48;75.67;97571.61;127871;1115;24223;-63
2021/01/29 05:27:30;;;;;;;20.10;9.43;;;;;;;-4.45;76.96;97559.72;128202;1111;22946;-63
2021/01/29 05:30:09;;;;;;;21.37;9.63;;;;;;;-4.41;77.15;97556.44;128271;1110;22872;-62
2021/01/29 05:32:55;;;;;;;18.63;8.93;;;;;;;-4.35;77.15;97557.45;128174;1111;22847;-63
2021/01/29 05:35:57;;;;;;;15.80;7.90;;;;;;;-4.31;76.51;97550.66;128325;1109;22911;-63
2021/01/29 05:38:51;;;;;;;12.07;7.33;;;;;;;-4.24;75.69;97540.83;128155;1112;22830;-63
2021/01/29 05:41:18;;;;;;;12.20;7.07;;;;;;;-4.20;76.63;97542.04;128340;1111;22825;-62
2021/01/29 05:44:10;;;;;;;14.20;7.97;;;;;;;-4.16;75.29;97543.22;128149;1112;23039;-62
2021/01/29 05:46:40;;;;;;;20.03;10.40;;;;;;;-4.11;76.47;97537.27;128241;1111;23090;-62
2021/01/29 05:49:22;;;;;;;16.90;9.43;;;;;;;-4.09;75.19;97540.54;128146;1111;22855;-62
2021/01/29 05:52:28;;;;;;;15.30;9.03;;;;;;;-4.08;75.98;97529.69;128296;1111;23945;-62
2021/01/29 05:55:17;;;;;;;14.47;9.10;;;;;;;-4.04;75.82;97541.52;128064;1111;22972;-63
2021/01/29 05:58:18;;;;;;;16.40;8.70;;;;;;;-4.01;76.26;97526.98;128265;1111;23481;-63
2021/01/29 06:01:33;;;;;;;21.70;10.88;;;;;;;-3.99;75.23;97525.73;128261;1111;23761;-66
2021/01/29 06:04:24;;;;;;;16.20;10.13;;;;;;;-3.98;76.73;97522.05;127795;1115;22934;-64
2021/01/29 06:07:00;;;;;;;18.83;9.70;;;;;;;-3.96;76.60;97514.67;127849;1114;23641;-65
2021/01/29 06:09:36;;;;;;;16.17;9.73;;;;;;;-3.94;77.02;97509.14;127781;1115;23049;-64
2021/01/29 06:12:25;;;;;;;17.63;10.73;;;;;;;-3.93;75.93;97500.14;127877;1114;23040;-65
2021/01/29 06:15:01;;;;;;;23.33;12.03;;;;;;;-3.93;76.92;97500.14;127770;1114;22916;-65
2021/01/29 06:18:05;;;;;;;23.27;12.97;;;;;;;-3.90;75.81;97498.89;127859;1115;22965;-65
2021/01/29 06:20:57;;;;;;;18.60;11.33;;;;;;;-3.90;77.16;97505.03;127720;1115;22883;-66
2021/01/29 06:23:57;;;;;;;25.33;11.93;;;;;;;-3.92;76.16;97510.56;127881;1114;22923;-63
2021/01/29 06:26:49;;;;;;;21.13;10.63;;;;;;;-3.91;77.12;97514.05;127751;1115;23226;-65
2021/01/29 06:29:54;;;;;;;18.43;9.70;;;;;;;-3.89;76.51;97517.27;127864;1115;22953;-65
2021/01/29 06:33:00;;;;;;;19.80;9.80;;;;;;;-3.87;77.40;97517.88;127890;1113;22936;-65
2021/01/29 06:35:30;;;;;;;22.90;11.30;;;;;;;-3.85;77.95;97507.84;127655;1114;23067;-65
2021/01/29 06:38:16;;;;;;;21.27;11.83;;;;;;;-3.85;76.74;97515.01;128005;1111;22910;-67
2021/01/29 06:41:02;;;;;;;19.57;11.03;;;;;;;-3.85;77.35;97515.82;128114;1111;23039;-66
2021/01/29 06:43:37;;;;;;;19.43;10.63;;;;;;;-3.86;78.15;97524.83;128237;1112;22837;-65
2021/01/29 06:46:22;;;;;;;22.47;10.47;;;;;;;-3.87;78.31;97514.41;128095;1110;22942;-65
2021/01/29 06:48:58;;;;;;;20.20;11.10;;;;;;;-3.88;78.37;97512.77;128226;1111;22936;-66
2021/01/29 06:52:02;;;;;;;18.87;10.50;;;;;;;-3.89;78.51;97506.63;128066;1110;22903;-66
2021/01/29 06:54:51;;;;;;;19.70;11.57;;;;;;;-3.87;78.18;97509.08;128243;1110;22919;-65
2021/01/29 06:57:46;;;;;;;19.70;11.67;;;;;;;-3.87;79.01;97509.08;128099;1112;22888;-64
2021/01/29 07:00:32;;;;;;;23.67;12.13;;;;;;;-3.86;78.03;97518.70;128251;1111;22916;-66
2021/01/29 07:02:59;;;;;;;22.17;12.13;;;;;;;-3.85;78.61;97499.86;128124;1111;22897;-66
2021/01/29 07:05:45;;;;;;;23.17;11.33;;;;;;;-3.83;77.99;97496.98;128195;1110;23743;-65
2021/01/29 07:08:37;;;;;;;19.37;11.10;;;;;;;-3.83;79.03;97484.50;128155;1111;22840;-66
2021/01/29 07:11:36;;;;;;;18.20;11.33;;;;;;;-3.81;78.66;97481.62;128194;1112;22856;-65
2021/01/29 07:14:31;;;;;;;23.77;11.70;;;;;;;-3.78;78.12;97482.02;128322;1111;22900;-65
2021/01/29 07:17:15;;;;;;;19.37;11.33;;;;;;;-3.73;78.93;97489.33;124678;1112;27095;-64
2021/01/29 07:19:48;;;;;;;24.03;13.90;;;;;;;-3.70;79.04;97486.24;128301;1111;22952;-65
2021/01/29 07:22:22;;;;;;;23.50;11.50;;;;;;;-3.69;78.02;97475.38;128223;1111;22883;-65
2021/01/29 07:25:07;;;;;;;22.63;12.27;;;;;;;-3.65;78.33;97476.59;128301;1111;22880;-65
2021/01/29 07:27:52;;;;;;;20.10;11.10;;;;;;;-3.57;79.06;97483.46;128168;1111;22848;-65
2021/01/29 07:30:45;;;;;;;20.07;11.37;;;;;;;-3.52;79.05;97482.82;128192;1112;22908;-67
2021/01/29 07:33:32;;;;;;;18.63;10.97;;;;;;;-3.48;78.12;97473.38;128090;1111;22846;-67
2021/01/29 07:36:27;;;;;;;25.27;13.03;;;;;;;-3.44;79.37;97475.36;128208;1112;23782;-67
2021/01/29 07:39:22;;;;;;;20.87;11.13;;;;;;;-3.39;78.89;97472.86;128093;1111;22910;-67
2021/01/29 07:42:11;;;;;;;23.47;12.83;;;;;;;-3.34;78.86;97466.89;128234;1110;24045;-67
2021/01/29 07:44:45;;;;;;;22.83;12.67;;;;;;;-3.31;79.51;97463.77;128216;1111;23064;-67
2021/01/29 07:47:22;;;;;;;20.10;12.20;;;;;;;-3.28;79.63;97464.14;128299;1110;22959;-66
2021/01/29 07:49:56;;;;;;;24.00;12.40;;;;;;;-3.24;79.33;97460.02;128184;1111;23400;-67
2021/01/29 07:52:48;;;;;;;22.23;11.77;;;;;;;-3.18;79.70;97465.50;128291;1111;22817;-67
2021/01/29 07:55:23;;;;;;;25.03;12.57;;;;;;;-3.15;79.10;97470.36;128294;1111;22842;-67
2021/01/29 07:58:08;;;;;;;18.47;11.53;;;;;;;-3.11;79.98;97461.72;128222;1110;22933;-67
2021/01/29 08:01:00;;;;;;;20.97;10.97;;;;;;;-3.07;79.94;97464.77;128325;1111;24597;-67
2021/01/29 08:03:52;;;;;;;24.87;12.57;;;;;;;-3.03;79.30;97457.96;128202;1111;22935;-67
2021/01/29 08:06:24;;;;;;;21.53;12.13;;;;;;;-2.99;79.77;97464.45;128267;1112;22826;-67
2021/01/29 08:09:05;;;;;;;23.47;13.30;;;;;;;-2.96;79.46;97459.50;128160;1110;22844;-66
2021/01/29 08:11:33;;;;;;;26.60;13.93;;;;;;;-2.91;79.86;97457.00;128334;1112;22889;-66
2021/01/29 08:14:16;;;;;;;25.97;13.63;;;;;;;-2.86;79.55;97458.97;128131;1110;23435;-67
2021/01/29 08:17:11;;;;;;;24.73;14.00;;;;;;;-2.81;79.84;97447.65;128259;1110;23168;-66
2021/01/29 08:19:56;;;;;;;25.53;14.37;;;;;;;-2.76;80.20;97450.47;128138;1110;23003;-67
2021/01/29 08:22:42;;;;;;;25.50;13.80;;;;;;;-2.74;79.76;97453.73;128283;1110;23942;-65
2021/01/29 08:25:39;;;;;;;23.60;13.30;;;;;;;-2.69;79.80;97449.34;128129;1110;22890;-65
2021/01/29 08:28:28;;;;;;;27.43;15.17;;;;;;;-2.66;80.12;97440.08;128290;1111;22979;-65
2021/01/29 08:31:20;;;;;;;25.93;12.83;;;;;;;-2.62;79.94;97443.94;128184;1112;23063;-65
2021/01/29 08:34:19;;;;;;;26.53;14.07;;;;;;;-2.58;80.33;97451.23;128253;1111;22894;-65
2021/01/29 08:37:17;;;;;;;27.10;15.97;;;;;;;-2.53;80.54;97442.57;128304;1110;22872;-65
2021/01/29 08:39:51;;;;;;;21.37;10.85;;;;;;;-2.46;80.52;97439.83;128189;1110;22897;-66
2021/01/29 08:42:22;;;;;;;28.40;15.90;;;;;;;-2.44;80.85;97441.20;128259;1111;22848;-66
2021/01/29 08:45:26;;;;;;;21.00;13.37;;;;;;;-2.39;80.48;97445.87;128109;1111;22848;-66
2021/01/29 08:47:54;;;;;;;21.77;13.00;;;;;;;-2.35;80.60;97436.39;128285;1111;22827;-66
2021/01/29 08:50:29;;;;;;;25.53;14.20;;;;;;;-2.34;80.66;97444.16;128162;1110;22966;-66
2021/01/29 08:53:18;;;;;;;25.93;14.37;;;;;;;-2.28;81.05;97437.09;128234;1111;22856;-66
2021/01/29 08:56:06;;;;;;;27.02;13.98;;;;;;;-2.22;80.78;97428.19;128233;1111;22932;-67
2021/01/29 08:58:44;;;;;;;22.03;14.43;;;;;;;-2.19;81.02;97428.55;128217;1111;22938;-64
2021/01/29 09:01:13;;;;;;;20.77;12.60;;;;;;;-2.16;81.34;97436.08;128109;1109;23033;-65
2021/01/29 09:03:43;;;;;;;22.73;13.67;;;;;;;-2.13;81.11;97429.48;128254;1111;22869;-67
2021/01/29 09:06:17;;;;;;;27.67;14.17;;;;;;;-2.11;81.25;97416.73;128139;1111;23453;-66
2021/01/29 09:08:44;;;;;;;26.80;13.83;;;;;;;-2.08;81.37;97423.47;128202;1111;22858;-66
2021/01/29 09:11:47;;;;;;;23.33;13.43;;;;;;;-2.06;81.43;97426.72;128042;1112;22902;-67
2021/01/29 09:14:19;;;;;;;30.30;13.83;;;;;;;-2.01;81.53;97437.50;128253;1110;22931;-67
2021/01/29 09:16:46;;;;;;;22.00;13.13;;;;;;;-2.00;81.50;97431.94;128132;1110;24025;-66
2021/01/29 09:19:18;;;;;;;22.07;13.20;;;;;;;-1.96;81.72;97433.12;128205;1111;22898;-66
2021/01/29 09:22:15;;;;;;;21.10;12.90;;;;;;;-1.93;81.15;97434.52;128105;1111;22955;-67
2021/01/29 09:24:54;;;;;;;20.20;12.27;;;;;;;-1.90;81.58;97434.88;128142;1110;23042;-66
2021/01/29 09:27:48;;;;;;;18.87;11.27;;;;;;;-1.87;81.52;97437.06;128112;1111;22900;-67
2021/01/29 09:30:26;;;;;;;17.23;11.10;;;;;;;-1.82;81.51;97429.19;128257;1110;23666;-67
2021/01/29 09:32:57;;;;;;;17.73;11.83;;;;;;;-1.77;81.57;97435.70;128105;1111;22896;-66
2021/01/29 09:35:39;;;;;;;19.00;11.50;;;;;;;-1.75;81.82;97434.44;128287;1110;22974;-65
2021/01/29 09:38:10;;;;;;;22.30;13.03;;;;;;;-1.72;81.48;97430.47;128183;1109;22872;-66
2021/01/29 09:40:52;;;;;;;19.07;13.37;;;;;;;-1.69;81.32;97430.83;128263;1111;23625;-66
2021/01/29 09:43:29;;;;;;;16.90;10.45;;;;;;;-1.67;81.42;97434.08;128129;1111;22832;-67
2021/01/29 09:45:57;;;;;;;21.83;12.30;;;;;;;-1.61;81.64;97437.70;126964;1111;26073;-67
2021/01/29 09:48:25;;;;;;;17.87;11.47;;;;;;;-1.57;81.39;97428.16;128176;1110;23064;-65
2021/01/29 09:51:16;;;;;;;17.57;11.10;;;;;;;-1.53;81.31;97432.00;128372;1112;22912;-67
2021/01/29 09:53:51;;;;;;;20.03;11.57;;;;;;;-1.47;81.46;97420.40;128211;1111;22875;-68
2021/01/29 09:56:21;;;;;;;21.23;11.50;;;;;;;-1.42;81.46;97417.83;128288;1112;22851;-69
2021/01/29 09:59:24;;;;;;;21.30;13.03;;;;;;;-1.37;81.34;97412.61;128133;1112;22895;-68
2021/01/29 10:02:01;;;;;;;23.60;13.13;;;;;;;-1.34;80.92;97412.14;128267;1111;23740;-68
2021/01/29 10:05:14;;;;;;;21.70;13.90;;;;;;;-1.30;80.59;97412.50;128189;1112;22813;-68
2021/01/29 10:07:56;;;;;;;20.03;12.50;;;;;;;-1.23;80.77;97413.17;127892;1113;23649;-68
2021/01/29 10:10:30;;;;;;;21.50;12.60;;;;;;;-1.17;80.34;97407.72;127936;1115;23072;-68
2021/01/29 10:13:20;;;;;;;26.27;13.53;;;;;;;-1.10;81.01;97404.90;127941;1114;22862;-68
2021/01/29 10:16:05;;;;;;;20.57;12.57;;;;;;;-1.05;80.85;97402.34;127918;1114;22986;-68
2021/01/29 10:18:33;;;;;;;17.57;10.97;;;;;;;-0.96;80.40;97403.59;127862;1115;23642;-66
2021/01/29 10:21:13;;;;;;;16.95;10.70;;;;;;;-0.91;79.88;97398.36;127903;1115;23662;-66
2021/01/29 10:23:48;;;;;;;20.23;10.27;;;;;;;-0.83;80.17;97391.81;127804;1115;22984;-66
2021/01/29 10:26:18;;;;;;;22.37;12.50;;;;;;;-0.79;79.20;97388.44;127941;1115;22999;-66
2021/01/29 10:29:04;;;;;;;18.17;11.70;;;;;;;-0.76;78.93;97387.16;127835;1114;22988;-68
2021/01/29 10:32:08;;;;;;;21.17;12.97;;;;;;;-0.71;79.42;97377.34;127937;1115;22878;-68
2021/01/29 10:34:44;;;;;;;21.33;12.47;;;;;;;-0.66;78.12;97376.64;127761;1114;24071;-68
2021/01/29 10:37:22;;;;;;;21.23;12.40;;;;;;;-0.62;77.65;97385.82;127929;1114;22887;-68
2021/01/29 10:40:14;;;;;;;26.27;14.58;;;;;;;-0.61;78.10;97371.40;128151;1112;22873;-68
2021/01/29 10:43:25;;;;;;;21.13;12.00;;;;;;;-0.59;76.65;97371.16;128161;1112;22964;-67
2021/01/29 10:46:16;;;;;;;28.70;13.03;;;;;;;-0.60;76.41;97377.56;127827;1114;22907;-68
2021/01/29 10:48:58;;;;;;;21.73;12.83;;;;;;;-0.61;75.33;97381.28;127921;1115;23080;-67
2021/01/29 10:51:47;;;;;;;29.93;16.80;;;;;;;-0.62;75.23;97382.33;127822;1114;23018;-67
2021/01/29 10:54:15;;;;;;;27.03;12.70;;;;;;;-0.61;75.11;97376.75;127930;1115;22855;-68
2021/01/29 10:56:56;;;;;;;23.33;13.37;;;;;;;-0.64;74.09;97387.92;127775;1114;22931;-67
2021/01/29 10:59:37;;;;;;;23.37;12.93;;;;;;;-0.64;74.03;97385.24;127917;1114;23784;-68
2021/01/29 11:02:07;;;;;;;20.80;10.87;;;;;;;-0.64;72.65;97379.08;127851;1115;23012;-68
2021/01/29 11:04:52;;;;;;;18.45;9.70;;;;;;;-0.66;71.24;97389.20;125408;1115;23500;-67
2021/01/29 11:07:24;;;;;;;19.67;9.87;;;;;;;-0.71;70.33;97381.88;123676;1114;25066;-67
2021/01/29 11:09:54;;;;;;;17.27;9.27;;;;;;;-0.73;69.24;97384.02;127917;1114;23574;-67
2021/01/29 11:12:44;;;;;;;15.77;9.17;;;;;;;-0.72;69.22;97378.40;127835;1114;22921;-66
2021/01/29 11:15:39;;;;;;;14.13;8.47;;;;;;;-0.67;69.73;97382.22;127901;1113;23639;-66
2021/01/29 11:18:18;;;;;;;18.73;9.37;;;;;;;-0.63;69.57;97378.84;123801;1113;24573;-67
2021/01/29 11:20:50;;;;;;;19.20;10.97;;;;;;;-0.60;68.33;97381.05;123795;1114;23080;-67
2021/01/29 11:23:39;;;;;;;22.23;10.27;;;;;;;-0.58;68.20;97381.63;128079;1112;22891;-67
2021/01/29 11:26:38;;;;;;;17.50;9.30;;;;;;;-0.55;68.49;97385.66;128170;1111;22974;-68
2021/01/29 11:29:13;;;;;;;18.43;9.67;;;;;;;-0.54;68.11;97388.09;128262;1111;23355;-68
2021/01/29 11:32:19;;;;;;;17.30;9.47;;;;;;;-0.52;67.47;97388.67;127938;1112;22914;-67
2021/01/29 11:35:02;;;;;;;14.93;8.40;;;;;;;-0.50;66.32;97377.73;128257;1112;23036;-67
2021/01/29 11:37:55;;;;;;;16.50;8.97;;;;;;;-0.50;65.76;97391.92;127853;1112;22874;-68
2021/01/29 11:40:52;;;;;;;13.47;8.10;;;;;;;-0.49;64.79;97384.72;128223;1111;23409;-67
2021/01/29 11:43:47;;;;;;;19.40;7.33;;;;;;;-0.51;65.69;97382.28;127807;1115;22860;-67
2021/01/29 11:46:48;;;;;;;14.00;7.93;;;;;;;-0.48;64.38;97380.99;127837;1115;23711;-68
2021/01/29 11:49:22;;;;;;;16.40;8.83;;;;;;;-0.48;64.63;97397.85;127911;1115;23839;-68
2021/01/29 11:51:52;;;;;;;15.87;8.30;;;;;;;-0.49;64.96;97395.41;127653;1115;24037;-68
2021/01/29 11:54:46;;;;;;;13.97;8.20;;;;;;;-0.49;63.99;97382.85;127945;1115;22922;-67
2021/01/29 11:57:37;;;;;;;15.80;9.00;;;;;;;-0.49;64.22;97388.20;127830;1114;22854;-68
2021/01/29 12:00:20;;;;;;;19.97;9.77;;;;;;;-0.47;64.12;97394.13;127984;1114;23066;-68
2021/01/29 12:03:05;;;;;;;14.37;8.73;;;;;;;-0.46;63.22;97386.92;127821;1114;23684;-68
2021/01/29 12:05:53;;;;;;;17.20;8.85;;;;;;;-0.47;63.86;97388.78;126020;1114;23026;-67
2021/01/29 12:08:26;;;;;;;19.25;8.48;;;;;;;-0.47;64.10;97379.94;127782;1115;22918;-68
2021/01/29 12:10:56;;;;;;;16.80;9.73;;;;;;;-0.45;64.03;97375.17;127920;1114;22988;-69
2021/01/29 12:13:32;;;;;;;15.47;8.73;;;;;;;-0.45;63.23;97383.19;127760;1115;23135;-67
2021/01/29 12:16:00;;;;;;;18.07;9.47;;;;;;;-0.45;62.36;97381.33;126522;1115;23060;-68
2021/01/29 12:18:29;;;;;;;17.93;9.40;;;;;;;-0.45;63.32;97389.36;124437;1114;23161;-68
2021/01/29 12:21:06;;;;;;;23.10;11.00;;;;;;;-0.42;62.47;97383.50;128204;1111;22870;-66
2021/01/29 12:23:47;;;;;;;20.87;12.17;;;;;;;-0.42;63.68;97382.69;128206;1111;22884;-66
2021/01/29 12:26:33;;;;;;;20.73;12.53;;;;;;;-0.39;63.18;97399.08;128263;1111;23034;-66
2021/01/29 12:29:31;;;;;;;19.40;10.83;;;;;;;-0.37;63.45;97386.28;128195;1112;23040;-67
2021/01/29 12:32:25;;;;;;;18.60;9.90;;;;;;;-0.33;62.48;97381.27;127943;1114;22916;-66
2021/01/29 12:35:06;;;;;;;20.63;10.67;;;;;;;-0.30;63.27;97388.00;127816;1114;22911;-66
2021/01/29 12:37:35;;;;;;;14.63;8.53;;;;;;;-0.28;62.67;97385.88;127968;1114;25137;-66
2021/01/29 12:40:20;;;;;;;17.43;9.23;;;;;;;-0.26;62.61;97386.45;127814;1115;22918;-67